sensor_id;sensor_type;location;lat;lon;timestamp;P1;durP1;ratioP1;P2;durP2;ratioP2
13386;SDS011;6763;48.524;9.044;2023-04-25T00:00:14;1.40;;;1.30;;
13386;SDS011;6763;48.524;9.044;2023-04-25T00:02:39;2.10;;;1.50;;
13386;SDS011;6763;48.524;9.044;2023-04-25T00:05:05;4.20;;;1.30;;
13386;SDS011;6763;48.524;9.044;2023-04-25T00:07:30;1.48;;;1.33;;
13386;SDS011;6763;48.524;9.044;2023-04-25T00:09:57;1.58;;;1.48;;
13386;SDS011;6763;48.524;9.044;2023-04-25T00:12:22;1.50;;;1.40;;
13386;SDS011;6763;48.524;9.044;2023-04-25T00:14:48;2.38;;;1.85;;
13386;SDS011;6763;48.524;9.044;2023-04-25T00:17:15;2.30;;;1.42;;
13386;SDS011;6763;48.524;9.044;2023-04-25T00:19:41;1.20;;;1.13;;
13386;SDS011;6763;48.524;9.044;2023-04-25T00:22:07;1.25;;;1.15;;
13386;SDS011;6763;48.524;9.044;2023-04-25T00:24:32;1.40;;;1.30;;
13386;SDS011;6763;48.524;9.044;2023-04-25T00:26:58;1.30;;;1.20;;
13386;SDS011;6763;48.524;9.044;2023-04-25T00:29:23;1.63;;;1.48;;
13386;SDS011;6763;48.524;9.044;2023-04-25T00:31:48;5.95;;;1.50;;
13386;SDS011;6763;48.524;9.044;2023-04-25T00:34:14;1.85;;;1.48;;
13386;SDS011;6763;48.524;9.044;2023-04-25T00:36:39;1.50;;;1.40;;
13386;SDS011;6763;48.524;9.044;2023-04-25T00:39:04;1.38;;;1.27;;
13386;SDS011;6763;48.524;9.044;2023-04-25T00:41:31;1.40;;;1.20;;
13386;SDS011;6763;48.524;9.044;2023-04-25T00:43:57;1.40;;;1.30;;
13386;SDS011;6763;48.524;9.044;2023-04-25T00:46:24;3.10;;;1.70;;
13386;SDS011;6763;48.524;9.044;2023-04-25T00:48:49;1.10;;;1.10;;
13386;SDS011;6763;48.524;9.044;2023-04-25T00:51:19;1.70;;;1.60;;
13386;SDS011;6763;48.524;9.044;2023-04-25T00:53:45;1.17;;;1.08;;
13386;SDS011;6763;48.524;9.044;2023-04-25T00:56:12;1.25;;;1.15;;
13386;SDS011;6763;48.524;9.044;2023-04-25T00:58:38;3.42;;;1.40;;
13386;SDS011;6763;48.524;9.044;2023-04-25T01:01:03;2.35;;;1.30;;
13386;SDS011;6763;48.524;9.044;2023-04-25T01:03:29;1.38;;;1.27;;
13386;SDS011;6763;48.524;9.044;2023-04-25T01:06:00;1.75;;;1.20;;
13386;SDS011;6763;48.524;9.044;2023-04-25T01:08:27;2.00;;;1.50;;
13386;SDS011;6763;48.524;9.044;2023-04-25T01:10:52;2.25;;;2.03;;
13386;SDS011;6763;48.524;9.044;2023-04-25T01:13:18;2.33;;;1.35;;
13386;SDS011;6763;48.524;9.044;2023-04-25T01:15:43;1.58;;;1.33;;
13386;SDS011;6763;48.524;9.044;2023-04-25T01:18:09;1.23;;;1.13;;
13386;SDS011;6763;48.524;9.044;2023-04-25T01:20:34;1.13;;;1.02;;
13386;SDS011;6763;48.524;9.044;2023-04-25T01:23:02;1.88;;;1.13;;
13386;SDS011;6763;48.524;9.044;2023-04-25T01:25:28;2.45;;;1.67;;
13386;SDS011;6763;48.524;9.044;2023-04-25T01:27:54;1.33;;;1.23;;
13386;SDS011;6763;48.524;9.044;2023-04-25T01:30:20;3.85;;;1.40;;
13386;SDS011;6763;48.524;9.044;2023-04-25T01:32:46;1.45;;;1.35;;
13386;SDS011;6763;48.524;9.044;2023-04-25T01:35:12;1.75;;;1.35;;
13386;SDS011;6763;48.524;9.044;2023-04-25T01:37:38;2.53;;;1.67;;
13386;SDS011;6763;48.524;9.044;2023-04-25T01:40:05;1.23;;;1.13;;
13386;SDS011;6763;48.524;9.044;2023-04-25T01:42:31;7.57;;;1.52;;
13386;SDS011;6763;48.524;9.044;2023-04-25T01:44:58;3.03;;;1.20;;
13386;SDS011;6763;48.524;9.044;2023-04-25T01:47:23;1.45;;;1.25;;
13386;SDS011;6763;48.524;9.044;2023-04-25T01:49:49;1.70;;;1.13;;
13386;SDS011;6763;48.524;9.044;2023-04-25T01:52:14;1.77;;;1.48;;
13386;SDS011;6763;48.524;9.044;2023-04-25T01:54:40;1.30;;;1.20;;
13386;SDS011;6763;48.524;9.044;2023-04-25T01:57:09;1.30;;;1.20;;
13386;SDS011;6763;48.524;9.044;2023-04-25T01:59:35;1.63;;;1.40;;
13386;SDS011;6763;48.524;9.044;2023-04-25T02:02:00;1.63;;;1.33;;
13386;SDS011;6763;48.524;9.044;2023-04-25T02:04:28;1.30;;;1.20;;
13386;SDS011;6763;48.524;9.044;2023-04-25T02:06:54;1.60;;;1.20;;
13386;SDS011;6763;48.524;9.044;2023-04-25T02:09:19;1.98;;;1.58;;
13386;SDS011;6763;48.524;9.044;2023-04-25T02:11:45;2.50;;;1.23;;
13386;SDS011;6763;48.524;9.044;2023-04-25T02:14:10;1.33;;;1.20;;
13386;SDS011;6763;48.524;9.044;2023-04-25T02:16:36;1.17;;;1.00;;
13386;SDS011;6763;48.524;9.044;2023-04-25T02:19:01;1.63;;;1.23;;
13386;SDS011;6763;48.524;9.044;2023-04-25T02:21:26;5.28;;;1.10;;
13386;SDS011;6763;48.524;9.044;2023-04-25T02:23:52;1.30;;;1.20;;
13386;SDS011;6763;48.524;9.044;2023-04-25T02:26:17;2.10;;;1.80;;
13386;SDS011;6763;48.524;9.044;2023-04-25T02:28:43;2.35;;;1.92;;
13386;SDS011;6763;48.524;9.044;2023-04-25T02:31:08;4.13;;;1.55;;
13386;SDS011;6763;48.524;9.044;2023-04-25T02:33:33;1.70;;;1.60;;
13386;SDS011;6763;48.524;9.044;2023-04-25T02:35:59;1.85;;;1.60;;
13386;SDS011;6763;48.524;9.044;2023-04-25T02:38:24;6.82;;;1.55;;
13386;SDS011;6763;48.524;9.044;2023-04-25T02:40:50;1.40;;;1.20;;
13386;SDS011;6763;48.524;9.044;2023-04-25T02:43:15;1.80;;;1.65;;
13386;SDS011;6763;48.524;9.044;2023-04-25T02:45:41;2.67;;;1.38;;
13386;SDS011;6763;48.524;9.044;2023-04-25T02:48:06;1.65;;;1.20;;
13386;SDS011;6763;48.524;9.044;2023-04-25T02:50:31;1.63;;;1.48;;
13386;SDS011;6763;48.524;9.044;2023-04-25T02:52:57;1.50;;;1.33;;
13386;SDS011;6763;48.524;9.044;2023-04-25T02:55:22;2.75;;;1.42;;
13386;SDS011;6763;48.524;9.044;2023-04-25T02:57:47;2.53;;;1.85;;
13386;SDS011;6763;48.524;9.044;2023-04-25T03:00:13;2.83;;;1.52;;
13386;SDS011;6763;48.524;9.044;2023-04-25T03:02:39;1.67;;;1.58;;
13386;SDS011;6763;48.524;9.044;2023-04-25T03:05:04;1.63;;;1.52;;
13386;SDS011;6763;48.524;9.044;2023-04-25T03:07:30;1.77;;;1.67;;
13386;SDS011;6763;48.524;9.044;2023-04-25T03:09:56;1.58;;;1.38;;
13386;SDS011;6763;48.524;9.044;2023-04-25T03:12:21;2.05;;;1.05;;
13386;SDS011;6763;48.524;9.044;2023-04-25T03:14:47;2.35;;;1.90;;
13386;SDS011;6763;48.524;9.044;2023-04-25T03:17:12;6.55;;;4.03;;
13386;SDS011;6763;48.524;9.044;2023-04-25T03:19:37;3.88;;;2.80;;
13386;SDS011;6763;48.524;9.044;2023-04-25T03:22:03;1.40;;;1.17;;
13386;SDS011;6763;48.524;9.044;2023-04-25T03:24:28;1.80;;;1.38;;
13386;SDS011;6763;48.524;9.044;2023-04-25T03:26:53;2.47;;;1.92;;
13386;SDS011;6763;48.524;9.044;2023-04-25T03:29:19;1.83;;;1.45;;
13386;SDS011;6763;48.524;9.044;2023-04-25T03:31:49;1.70;;;1.27;;
13386;SDS011;6763;48.524;9.044;2023-04-25T03:34:14;2.53;;;1.70;;
13386;SDS011;6763;48.524;9.044;2023-04-25T03:36:40;2.10;;;1.52;;
13386;SDS011;6763;48.524;9.044;2023-04-25T03:39:05;1.65;;;1.40;;
13386;SDS011;6763;48.524;9.044;2023-04-25T03:41:31;7.68;;;2.03;;
13386;SDS011;6763;48.524;9.044;2023-04-25T03:43:56;1.52;;;1.42;;
13386;SDS011;6763;48.524;9.044;2023-04-25T03:46:21;4.50;;;1.70;;
13386;SDS011;6763;48.524;9.044;2023-04-25T03:48:47;0.90;;;0.90;;
13386;SDS011;6763;48.524;9.044;2023-04-25T03:51:12;2.35;;;1.45;;
13386;SDS011;6763;48.524;9.044;2023-04-25T03:53:38;1.42;;;1.27;;
13386;SDS011;6763;48.524;9.044;2023-04-25T03:56:03;1.33;;;1.23;;
13386;SDS011;6763;48.524;9.044;2023-04-25T03:58:28;2.13;;;1.30;;
13386;SDS011;6763;48.524;9.044;2023-04-25T04:00:54;1.70;;;1.60;;
13386;SDS011;6763;48.524;9.044;2023-04-25T04:03:19;4.97;;;1.73;;
13386;SDS011;6763;48.524;9.044;2023-04-25T04:05:45;1.75;;;1.65;;
13386;SDS011;6763;48.524;9.044;2023-04-25T04:08:11;1.73;;;1.30;;
13386;SDS011;6763;48.524;9.044;2023-04-25T04:10:37;1.15;;;1.05;;
13386;SDS011;6763;48.524;9.044;2023-04-25T04:13:02;2.65;;;1.55;;
13386;SDS011;6763;48.524;9.044;2023-04-25T04:15:27;2.97;;;1.30;;
13386;SDS011;6763;48.524;9.044;2023-04-25T04:17:53;0.88;;;0.88;;
13386;SDS011;6763;48.524;9.044;2023-04-25T04:20:19;1.60;;;1.20;;
13386;SDS011;6763;48.524;9.044;2023-04-25T04:22:44;1.50;;;1.40;;
13386;SDS011;6763;48.524;9.044;2023-04-25T04:25:10;1.35;;;1.20;;
13386;SDS011;6763;48.524;9.044;2023-04-25T04:27:36;1.50;;;1.35;;
13386;SDS011;6763;48.524;9.044;2023-04-25T04:30:02;1.88;;;1.38;;
13386;SDS011;6763;48.524;9.044;2023-04-25T04:32:28;1.48;;;1.20;;
13386;SDS011;6763;48.524;9.044;2023-04-25T04:34:55;4.40;;;1.42;;
13386;SDS011;6763;48.524;9.044;2023-04-25T04:37:20;1.52;;;1.42;;
13386;SDS011;6763;48.524;9.044;2023-04-25T04:39:46;3.58;;;1.17;;
13386;SDS011;6763;48.524;9.044;2023-04-25T04:42:12;2.25;;;1.50;;
13386;SDS011;6763;48.524;9.044;2023-04-25T04:44:37;1.58;;;1.33;;
13386;SDS011;6763;48.524;9.044;2023-04-25T04:47:04;1.40;;;1.15;;
13386;SDS011;6763;48.524;9.044;2023-04-25T04:49:31;1.30;;;1.20;;
13386;SDS011;6763;48.524;9.044;2023-04-25T04:51:56;3.60;;;1.45;;
13386;SDS011;6763;48.524;9.044;2023-04-25T04:54:22;1.30;;;1.20;;
13386;SDS011;6763;48.524;9.044;2023-04-25T04:56:47;3.28;;;2.67;;
13386;SDS011;6763;48.524;9.044;2023-04-25T04:59:13;2.30;;;2.10;;
13386;SDS011;6763;48.524;9.044;2023-04-25T05:01:38;2.17;;;1.67;;
13386;SDS011;6763;48.524;9.044;2023-04-25T05:04:03;3.55;;;1.60;;
13386;SDS011;6763;48.524;9.044;2023-04-25T05:06:29;1.58;;;1.15;;
13386;SDS011;6763;48.524;9.044;2023-04-25T05:08:56;2.72;;;1.42;;
13386;SDS011;6763;48.524;9.044;2023-04-25T05:11:22;2.25;;;1.67;;
13386;SDS011;6763;48.524;9.044;2023-04-25T05:13:49;6.72;;;1.27;;
13386;SDS011;6763;48.524;9.044;2023-04-25T05:16:16;3.85;;;1.35;;
13386;SDS011;6763;48.524;9.044;2023-04-25T05:18:41;2.47;;;1.20;;
13386;SDS011;6763;48.524;9.044;2023-04-25T05:21:07;1.40;;;1.30;;
13386;SDS011;6763;48.524;9.044;2023-04-25T05:23:32;1.40;;;1.20;;
13386;SDS011;6763;48.524;9.044;2023-04-25T05:25:58;1.30;;;1.20;;
13386;SDS011;6763;48.524;9.044;2023-04-25T05:28:24;1.88;;;1.50;;
13386;SDS011;6763;48.524;9.044;2023-04-25T05:30:49;1.20;;;1.10;;
13386;SDS011;6763;48.524;9.044;2023-04-25T05:33:14;1.98;;;1.52;;
13386;SDS011;6763;48.524;9.044;2023-04-25T05:35:40;2.75;;;1.45;;
13386;SDS011;6763;48.524;9.044;2023-04-25T05:38:05;1.70;;;1.23;;
13386;SDS011;6763;48.524;9.044;2023-04-25T05:40:31;2.15;;;1.30;;
13386;SDS011;6763;48.524;9.044;2023-04-25T05:42:56;2.45;;;1.77;;
13386;SDS011;6763;48.524;9.044;2023-04-25T05:45:22;3.90;;;1.70;;
13386;SDS011;6763;48.524;9.044;2023-04-25T05:47:48;2.33;;;1.60;;
13386;SDS011;6763;48.524;9.044;2023-04-25T05:50:13;1.85;;;1.63;;
13386;SDS011;6763;48.524;9.044;2023-04-25T05:52:38;2.22;;;1.60;;
13386;SDS011;6763;48.524;9.044;2023-04-25T05:55:04;3.67;;;1.92;;
13386;SDS011;6763;48.524;9.044;2023-04-25T05:57:30;1.58;;;1.40;;
13386;SDS011;6763;48.524;9.044;2023-04-25T05:59:56;1.85;;;1.27;;
13386;SDS011;6763;48.524;9.044;2023-04-25T06:02:21;2.20;;;1.42;;
13386;SDS011;6763;48.524;9.044;2023-04-25T06:04:47;4.18;;;1.52;;
13386;SDS011;6763;48.524;9.044;2023-04-25T06:07:14;1.80;;;1.20;;
13386;SDS011;6763;48.524;9.044;2023-04-25T06:09:39;1.80;;;1.17;;
13386;SDS011;6763;48.524;9.044;2023-04-25T06:12:05;4.35;;;1.30;;
13386;SDS011;6763;48.524;9.044;2023-04-25T06:14:32;2.22;;;1.20;;
13386;SDS011;6763;48.524;9.044;2023-04-25T06:16:58;1.45;;;1.10;;
13386;SDS011;6763;48.524;9.044;2023-04-25T06:19:23;1.10;;;0.95;;
13386;SDS011;6763;48.524;9.044;2023-04-25T06:21:48;3.05;;;1.60;;
13386;SDS011;6763;48.524;9.044;2023-04-25T06:24:14;2.33;;;1.15;;
13386;SDS011;6763;48.524;9.044;2023-04-25T06:26:39;1.10;;;1.00;;
13386;SDS011;6763;48.524;9.044;2023-04-25T06:29:04;0.80;;;0.80;;
13386;SDS011;6763;48.524;9.044;2023-04-25T06:31:30;2.88;;;0.95;;
13386;SDS011;6763;48.524;9.044;2023-04-25T06:33:57;1.13;;;0.90;;
13386;SDS011;6763;48.524;9.044;2023-04-25T06:36:23;0.80;;;0.80;;
13386;SDS011;6763;48.524;9.044;2023-04-25T06:38:53;1.58;;;0.70;;
13386;SDS011;6763;48.524;9.044;2023-04-25T06:41:19;3.30;;;0.95;;
13386;SDS011;6763;48.524;9.044;2023-04-25T06:43:45;1.02;;;0.90;;
13386;SDS011;6763;48.524;9.044;2023-04-25T06:46:10;1.30;;;1.20;;
13386;SDS011;6763;48.524;9.044;2023-04-25T06:48:36;1.63;;;1.17;;
13386;SDS011;6763;48.524;9.044;2023-04-25T06:51:01;1.45;;;1.00;;
13386;SDS011;6763;48.524;9.044;2023-04-25T06:53:27;0.90;;;0.90;;
13386;SDS011;6763;48.524;9.044;2023-04-25T06:55:52;0.80;;;0.80;;
13386;SDS011;6763;48.524;9.044;2023-04-25T06:58:17;1.10;;;1.00;;
13386;SDS011;6763;48.524;9.044;2023-04-25T07:00:43;2.30;;;0.90;;
13386;SDS011;6763;48.524;9.044;2023-04-25T07:03:08;0.75;;;0.75;;
13386;SDS011;6763;48.524;9.044;2023-04-25T07:05:34;1.77;;;1.00;;
13386;SDS011;6763;48.524;9.044;2023-04-25T07:08:00;0.68;;;0.68;;
13386;SDS011;6763;48.524;9.044;2023-04-25T07:10:25;2.42;;;1.33;;
13386;SDS011;6763;48.524;9.044;2023-04-25T07:12:50;1.00;;;0.90;;
13386;SDS011;6763;48.524;9.044;2023-04-25T07:15:16;0.73;;;0.73;;
13386;SDS011;6763;48.524;9.044;2023-04-25T07:17:41;1.10;;;1.00;;
13386;SDS011;6763;48.524;9.044;2023-04-25T07:20:07;0.82;;;0.82;;
13386;SDS011;6763;48.524;9.044;2023-04-25T07:22:34;1.20;;;0.95;;
13386;SDS011;6763;48.524;9.044;2023-04-25T07:24:59;1.00;;;0.82;;
13386;SDS011;6763;48.524;9.044;2023-04-25T07:27:25;0.85;;;0.85;;
13386;SDS011;6763;48.524;9.044;2023-04-25T07:29:50;2.22;;;1.08;;
13386;SDS011;6763;48.524;9.044;2023-04-25T07:32:15;3.53;;;0.82;;
13386;SDS011;6763;48.524;9.044;2023-04-25T07:34:41;1.80;;;1.08;;
13386;SDS011;6763;48.524;9.044;2023-04-25T07:37:06;0.90;;;0.80;;
13386;SDS011;6763;48.524;9.044;2023-04-25T07:39:31;0.85;;;0.85;;
13386;SDS011;6763;48.524;9.044;2023-04-25T07:41:57;1.90;;;1.08;;
13386;SDS011;6763;48.524;9.044;2023-04-25T07:44:23;1.35;;;0.93;;
13386;SDS011;6763;48.524;9.044;2023-04-25T07:46:49;0.90;;;0.90;;
13386;SDS011;6763;48.524;9.044;2023-04-25T07:49:14;3.33;;;1.02;;
13386;SDS011;6763;48.524;9.044;2023-04-25T07:51:40;1.50;;;1.17;;
13386;SDS011;6763;48.524;9.044;2023-04-25T07:54:06;1.65;;;1.48;;
13386;SDS011;6763;48.524;9.044;2023-04-25T07:56:31;0.90;;;0.90;;
13386;SDS011;6763;48.524;9.044;2023-04-25T07:58:57;0.80;;;0.80;;
13386;SDS011;6763;48.524;9.044;2023-04-25T08:01:22;1.13;;;1.02;;
13386;SDS011;6763;48.524;9.044;2023-04-25T08:03:48;1.77;;;1.00;;
13386;SDS011;6763;48.524;9.044;2023-04-25T08:06:13;2.35;;;0.98;;
13386;SDS011;6763;48.524;9.044;2023-04-25T08:08:38;1.08;;;0.98;;
13386;SDS011;6763;48.524;9.044;2023-04-25T08:11:04;1.25;;;0.88;;
13386;SDS011;6763;48.524;9.044;2023-04-25T08:13:30;0.88;;;0.88;;
13386;SDS011;6763;48.524;9.044;2023-04-25T08:15:55;1.10;;;1.00;;
13386;SDS011;6763;48.524;9.044;2023-04-25T08:18:20;0.80;;;0.80;;
13386;SDS011;6763;48.524;9.044;2023-04-25T08:20:46;1.05;;;0.95;;
13386;SDS011;6763;48.524;9.044;2023-04-25T08:23:11;1.10;;;1.00;;
13386;SDS011;6763;48.524;9.044;2023-04-25T08:25:36;1.67;;;1.00;;
13386;SDS011;6763;48.524;9.044;2023-04-25T08:28:02;1.88;;;1.05;;
13386;SDS011;6763;48.524;9.044;2023-04-25T08:30:28;1.75;;;1.33;;
13386;SDS011;6763;48.524;9.044;2023-04-25T08:32:54;0.65;;;0.65;;
13386;SDS011;6763;48.524;9.044;2023-04-25T08:35:19;0.90;;;0.90;;
13386;SDS011;6763;48.524;9.044;2023-04-25T08:37:45;1.17;;;1.08;;
13386;SDS011;6763;48.524;9.044;2023-04-25T08:40:11;1.60;;;1.10;;
13386;SDS011;6763;48.524;9.044;2023-04-25T08:42:39;1.20;;;1.10;;
13386;SDS011;6763;48.524;9.044;2023-04-25T08:45:06;0.90;;;0.85;;
13386;SDS011;6763;48.524;9.044;2023-04-25T08:47:33;1.10;;;1.02;;
13386;SDS011;6763;48.524;9.044;2023-04-25T08:49:59;2.08;;;1.85;;
13386;SDS011;6763;48.524;9.044;2023-04-25T08:52:27;2.22;;;1.70;;
13386;SDS011;6763;48.524;9.044;2023-04-25T08:54:55;0.77;;;0.77;;
13386;SDS011;6763;48.524;9.044;2023-04-25T08:57:22;2.50;;;1.35;;
13386;SDS011;6763;48.524;9.044;2023-04-25T08:59:48;0.85;;;0.85;;
13386;SDS011;6763;48.524;9.044;2023-04-25T09:02:14;1.35;;;1.10;;
13386;SDS011;6763;48.524;9.044;2023-04-25T09:04:44;1.45;;;1.13;;
13386;SDS011;6763;48.524;9.044;2023-04-25T09:07:09;0.70;;;0.70;;
13386;SDS011;6763;48.524;9.044;2023-04-25T09:09:35;1.02;;;1.02;;
13386;SDS011;6763;48.524;9.044;2023-04-25T09:12:01;1.05;;;0.95;;
13386;SDS011;6763;48.524;9.044;2023-04-25T09:14:26;1.30;;;1.23;;
13386;SDS011;6763;48.524;9.044;2023-04-25T09:19:25;0.90;;;0.90;;
13386;SDS011;6763;48.524;9.044;2023-04-25T09:21:58;1.58;;;1.00;;
13386;SDS011;6763;48.524;9.044;2023-04-25T09:27:09;1.73;;;1.10;;
13386;SDS011;6763;48.524;9.044;2023-04-25T09:29:36;1.55;;;1.00;;
13386;SDS011;6763;48.524;9.044;2023-04-25T09:32:19;0.85;;;0.85;;
13386;SDS011;6763;48.524;9.044;2023-04-25T09:34:49;1.63;;;1.50;;
13386;SDS011;6763;48.524;9.044;2023-04-25T09:37:20;1.55;;;1.35;;
13386;SDS011;6763;48.524;9.044;2023-04-25T09:39:59;4.15;;;1.70;;
13386;SDS011;6763;48.524;9.044;2023-04-25T09:42:28;1.48;;;1.38;;
13386;SDS011;6763;48.524;9.044;2023-04-25T09:44:56;1.50;;;1.10;;
13386;SDS011;6763;48.524;9.044;2023-04-25T09:47:23;2.83;;;1.63;;
13386;SDS011;6763;48.524;9.044;2023-04-25T09:49:50;1.35;;;1.20;;
13386;SDS011;6763;48.524;9.044;2023-04-25T09:52:17;1.05;;;0.93;;
13386;SDS011;6763;48.524;9.044;2023-04-25T09:54:45;1.48;;;1.38;;
13386;SDS011;6763;48.524;9.044;2023-04-25T09:57:12;0.80;;;0.80;;
13386;SDS011;6763;48.524;9.044;2023-04-25T09:59:39;0.80;;;0.80;;
13386;SDS011;6763;48.524;9.044;2023-04-25T10:02:11;0.80;;;0.80;;
13386;SDS011;6763;48.524;9.044;2023-04-25T10:04:38;2.35;;;0.60;;
13386;SDS011;6763;48.524;9.044;2023-04-25T10:07:07;0.60;;;0.60;;
13386;SDS011;6763;48.524;9.044;2023-04-25T10:09:33;0.50;;;0.50;;
13386;SDS011;6763;48.524;9.044;2023-04-25T10:12:02;0.50;;;0.50;;
13386;SDS011;6763;48.524;9.044;2023-04-25T10:14:29;0.55;;;0.55;;
13386;SDS011;6763;48.524;9.044;2023-04-25T10:16:57;0.50;;;0.50;;
13386;SDS011;6763;48.524;9.044;2023-04-25T10:19:23;0.55;;;0.55;;
13386;SDS011;6763;48.524;9.044;2023-04-25T10:22:02;0.50;;;0.50;;
13386;SDS011;6763;48.524;9.044;2023-04-25T10:24:48;0.50;;;0.50;;
13386;SDS011;6763;48.524;9.044;2023-04-25T10:27:15;0.52;;;0.52;;
13386;SDS011;6763;48.524;9.044;2023-04-25T10:29:40;0.40;;;0.40;;
13386;SDS011;6763;48.524;9.044;2023-04-25T10:32:08;0.43;;;0.43;;
13386;SDS011;6763;48.524;9.044;2023-04-25T10:34:40;0.47;;;0.47;;
13386;SDS011;6763;48.524;9.044;2023-04-25T10:37:09;0.50;;;0.50;;
13386;SDS011;6763;48.524;9.044;2023-04-25T10:39:36;0.57;;;0.57;;
13386;SDS011;6763;48.524;9.044;2023-04-25T10:42:09;0.47;;;0.47;;
13386;SDS011;6763;48.524;9.044;2023-04-25T10:44:34;0.40;;;0.40;;
13386;SDS011;6763;48.524;9.044;2023-04-25T10:47:02;0.40;;;0.40;;
13386;SDS011;6763;48.524;9.044;2023-04-25T10:49:35;0.50;;;0.50;;
13386;SDS011;6763;48.524;9.044;2023-04-25T10:54:51;0.40;;;0.40;;
13386;SDS011;6763;48.524;9.044;2023-04-25T11:00:00;0.45;;;0.45;;
13386;SDS011;6763;48.524;9.044;2023-04-25T11:02:31;0.30;;;0.30;;
13386;SDS011;6763;48.524;9.044;2023-04-25T11:04:57;0.40;;;0.40;;
13386;SDS011;6763;48.524;9.044;2023-04-25T11:07:33;0.50;;;0.50;;
13386;SDS011;6763;48.524;9.044;2023-04-25T11:10:03;0.80;;;0.50;;
13386;SDS011;6763;48.524;9.044;2023-04-25T11:12:30;0.43;;;0.43;;
13386;SDS011;6763;48.524;9.044;2023-04-25T11:15:05;0.40;;;0.40;;
13386;SDS011;6763;48.524;9.044;2023-04-25T11:17:32;0.50;;;0.50;;
13386;SDS011;6763;48.524;9.044;2023-04-25T11:19:58;1.45;;;0.60;;
13386;SDS011;6763;48.524;9.044;2023-04-25T11:22:24;0.50;;;0.50;;
13386;SDS011;6763;48.524;9.044;2023-04-25T11:24:52;0.43;;;0.43;;
13386;SDS011;6763;48.524;9.044;2023-04-25T11:27:17;0.40;;;0.40;;
13386;SDS011;6763;48.524;9.044;2023-04-25T11:29:43;0.40;;;0.40;;
13386;SDS011;6763;48.524;9.044;2023-04-25T11:32:08;0.50;;;0.50;;
13386;SDS011;6763;48.524;9.044;2023-04-25T11:34:34;0.63;;;0.63;;
13386;SDS011;6763;48.524;9.044;2023-04-25T11:37:00;0.50;;;0.50;;
13386;SDS011;6763;48.524;9.044;2023-04-25T11:39:27;0.52;;;0.52;;
13386;SDS011;6763;48.524;9.044;2023-04-25T11:41:53;0.60;;;0.60;;
13386;SDS011;6763;48.524;9.044;2023-04-25T11:44:19;0.50;;;0.50;;
13386;SDS011;6763;48.524;9.044;2023-04-25T11:46:46;0.93;;;0.63;;
13386;SDS011;6763;48.524;9.044;2023-04-25T11:49:12;0.57;;;0.57;;
13386;SDS011;6763;48.524;9.044;2023-04-25T11:51:44;0.40;;;0.40;;
13386;SDS011;6763;48.524;9.044;2023-04-25T11:54:11;0.47;;;0.47;;
13386;SDS011;6763;48.524;9.044;2023-04-25T11:56:37;0.60;;;0.60;;
13386;SDS011;6763;48.524;9.044;2023-04-25T11:59:06;0.40;;;0.40;;
13386;SDS011;6763;48.524;9.044;2023-04-25T12:01:32;0.52;;;0.52;;
13386;SDS011;6763;48.524;9.044;2023-04-25T12:06:38;0.60;;;0.60;;
13386;SDS011;6763;48.524;9.044;2023-04-25T12:09:06;0.60;;;0.60;;
13386;SDS011;6763;48.524;9.044;2023-04-25T12:11:40;0.40;;;0.40;;
13386;SDS011;6763;48.524;9.044;2023-04-25T12:14:33;0.38;;;0.38;;
13386;SDS011;6763;48.524;9.044;2023-04-25T12:17:00;0.40;;;0.40;;
13386;SDS011;6763;48.524;9.044;2023-04-25T12:19:31;0.40;;;0.40;;
13386;SDS011;6763;48.524;9.044;2023-04-25T12:21:59;0.40;;;0.40;;
13386;SDS011;6763;48.524;9.044;2023-04-25T12:24:26;0.50;;;0.50;;
13386;SDS011;6763;48.524;9.044;2023-04-25T12:26:59;0.63;;;0.60;;
13386;SDS011;6763;48.524;9.044;2023-04-25T12:29:27;0.60;;;0.60;;
13386;SDS011;6763;48.524;9.044;2023-04-25T12:31:54;0.40;;;0.40;;
13386;SDS011;6763;48.524;9.044;2023-04-25T12:34:21;0.50;;;0.50;;
13386;SDS011;6763;48.524;9.044;2023-04-25T12:36:47;0.70;;;0.70;;
13386;SDS011;6763;48.524;9.044;2023-04-25T12:39:14;0.50;;;0.50;;
13386;SDS011;6763;48.524;9.044;2023-04-25T12:41:44;0.50;;;0.50;;
13386;SDS011;6763;48.524;9.044;2023-04-25T12:44:10;0.77;;;0.70;;
13386;SDS011;6763;48.524;9.044;2023-04-25T12:46:36;0.47;;;0.47;;
13386;SDS011;6763;48.524;9.044;2023-04-25T12:49:01;0.68;;;0.60;;
13386;SDS011;6763;48.524;9.044;2023-04-25T12:51:28;0.60;;;0.60;;
13386;SDS011;6763;48.524;9.044;2023-04-25T12:53:54;0.43;;;0.43;;
13386;SDS011;6763;48.524;9.044;2023-04-25T12:56:19;0.50;;;0.50;;
13386;SDS011;6763;48.524;9.044;2023-04-25T12:58:45;0.60;;;0.60;;
13386;SDS011;6763;48.524;9.044;2023-04-25T13:01:11;0.38;;;0.38;;
13386;SDS011;6763;48.524;9.044;2023-04-25T13:03:38;0.60;;;0.60;;
13386;SDS011;6763;48.524;9.044;2023-04-25T13:06:04;0.60;;;0.60;;
13386;SDS011;6763;48.524;9.044;2023-04-25T13:08:30;0.50;;;0.50;;
13386;SDS011;6763;48.524;9.044;2023-04-25T13:10:55;0.60;;;0.60;;
13386;SDS011;6763;48.524;9.044;2023-04-25T13:13:21;0.98;;;0.68;;
13386;SDS011;6763;48.524;9.044;2023-04-25T13:15:46;0.80;;;0.70;;
13386;SDS011;6763;48.524;9.044;2023-04-25T13:18:11;1.00;;;0.75;;
13386;SDS011;6763;48.524;9.044;2023-04-25T13:20:37;0.80;;;0.80;;
13386;SDS011;6763;48.524;9.044;2023-04-25T13:23:02;1.05;;;0.80;;
13386;SDS011;6763;48.524;9.044;2023-04-25T13:25:27;0.70;;;0.70;;
13386;SDS011;6763;48.524;9.044;2023-04-25T13:27:53;1.73;;;0.90;;
13386;SDS011;6763;48.524;9.044;2023-04-25T13:30:18;0.85;;;0.85;;
13386;SDS011;6763;48.524;9.044;2023-04-25T13:32:43;0.65;;;0.65;;
13386;SDS011;6763;48.524;9.044;2023-04-25T13:35:10;1.30;;;0.90;;
13386;SDS011;6763;48.524;9.044;2023-04-25T13:37:37;0.75;;;0.75;;
13386;SDS011;6763;48.524;9.044;2023-04-25T13:40:04;0.73;;;0.73;;
13386;SDS011;6763;48.524;9.044;2023-04-25T13:42:31;1.85;;;1.20;;
13386;SDS011;6763;48.524;9.044;2023-04-25T13:44:57;1.67;;;1.00;;
13386;SDS011;6763;48.524;9.044;2023-04-25T13:47:22;0.90;;;0.82;;
13386;SDS011;6763;48.524;9.044;2023-04-25T13:49:48;1.10;;;1.00;;
13386;SDS011;6763;48.524;9.044;2023-04-25T13:52:14;0.93;;;0.93;;
13386;SDS011;6763;48.524;9.044;2023-04-25T13:54:40;1.15;;;1.05;;
13386;SDS011;6763;48.524;9.044;2023-04-25T13:57:05;1.48;;;1.05;;
13386;SDS011;6763;48.524;9.044;2023-04-25T13:59:31;1.58;;;1.25;;
13386;SDS011;6763;48.524;9.044;2023-04-25T14:01:57;2.08;;;1.25;;
13386;SDS011;6763;48.524;9.044;2023-04-25T14:04:23;1.23;;;0.95;;
13386;SDS011;6763;48.524;9.044;2023-04-25T14:06:48;3.95;;;1.10;;
13386;SDS011;6763;48.524;9.044;2023-04-25T14:09:15;1.63;;;1.17;;
13386;SDS011;6763;48.524;9.044;2023-04-25T14:11:40;1.20;;;1.10;;
13386;SDS011;6763;48.524;9.044;2023-04-25T14:14:06;1.20;;;1.00;;
13386;SDS011;6763;48.524;9.044;2023-04-25T14:16:31;1.52;;;1.02;;
13386;SDS011;6763;48.524;9.044;2023-04-25T14:19:00;2.55;;;1.48;;
13386;SDS011;6763;48.524;9.044;2023-04-25T14:21:26;1.42;;;1.20;;
13386;SDS011;6763;48.524;9.044;2023-04-25T14:23:51;2.90;;;1.42;;
13386;SDS011;6763;48.524;9.044;2023-04-25T14:26:17;1.10;;;1.00;;
13386;SDS011;6763;48.524;9.044;2023-04-25T14:28:42;1.80;;;1.30;;
13386;SDS011;6763;48.524;9.044;2023-04-25T14:31:08;1.70;;;1.23;;
13386;SDS011;6763;48.524;9.044;2023-04-25T14:33:33;4.50;;;1.27;;
13386;SDS011;6763;48.524;9.044;2023-04-25T14:35:59;1.00;;;1.00;;
13386;SDS011;6763;48.524;9.044;2023-04-25T14:38:24;1.80;;;1.50;;
13386;SDS011;6763;48.524;9.044;2023-04-25T14:40:50;1.50;;;1.40;;
13386;SDS011;6763;48.524;9.044;2023-04-25T14:43:17;1.27;;;1.17;;
13386;SDS011;6763;48.524;9.044;2023-04-25T14:45:42;1.20;;;1.10;;
13386;SDS011;6763;48.524;9.044;2023-04-25T14:48:08;1.45;;;1.35;;
13386;SDS011;6763;48.524;9.044;2023-04-25T14:50:33;1.30;;;1.15;;
13386;SDS011;6763;48.524;9.044;2023-04-25T14:52:59;1.40;;;1.30;;
13386;SDS011;6763;48.524;9.044;2023-04-25T14:55:25;2.40;;;1.55;;
13386;SDS011;6763;48.524;9.044;2023-04-25T14:57:52;2.30;;;1.33;;
13386;SDS011;6763;48.524;9.044;2023-04-25T15:00:19;2.00;;;1.40;;
13386;SDS011;6763;48.524;9.044;2023-04-25T15:02:45;1.40;;;1.25;;
13386;SDS011;6763;48.524;9.044;2023-04-25T15:05:12;1.75;;;1.23;;
13386;SDS011;6763;48.524;9.044;2023-04-25T15:07:38;1.48;;;1.33;;